Aviation Digital Data Service (ADDS)

Output produced by METARs form (1632 UTC 04 August 2021)
found at http://www.aviationweather.gov/metar/data/
 
LETO 041600Z 31007KT 280V010 CAVOK 32/09 Q1015 NOSIG
TAF LETO 041100Z 0412/0512 03005KT CAVOK TX32/0415Z TN17/0505Z 
     TEMPO 0416/0419 31012KT 
     PROB30 
     TEMPO 0416/0419 32010G20KT 
     BECMG 0511/0512 22010KT
       
LEZG 041600Z 30010KT 260V330 9999 FEW060 30/14 Q1014
TAF LEZG 041100Z 0412/0512 31012KT 9999 FEW050 TX30/0415Z TN18/0506Z 
     TEMPO 0412/0416 31015KT 
     BECMG 0419/0421 31010KT 
     BECMG 0500/0502 27007KT 
     BECMG 0507/0509 VRB04KT
       
LERT 041600Z 26013KT CAVOK 28/19 Q1015 NOSIG
TAF LERT 041400Z 0415/0515 27010KT CAVOK TX30/0514Z TN20/0505Z 
     BECMG 0422/0424 33008KT 
     BECMG 0510/0512 26010KT
       
LELC 041600Z 20012KT 150V240 CAVOK 31/19 Q1011 NOSIG
TAF LELC 041100Z 0412/0512 22009KT CAVOK TX33/0413Z TN20/0504Z 
     PROB40 
     TEMPO 0412/0420 22015G25KT 
     BECMG 0423/0501 04010KT 
     BECMG 0510/0512 12010KT
       
LEAB 041600Z 34011KT 300V030 CAVOK 32/09 Q1016 NOSIG
TAF LEAB 041100Z 0412/0512 30010KT CAVOK TX33/0415Z TN17/0505Z 
     PROB40 
     TEMPO 0412/0418 30014G25KT 
     BECMG 0418/0420 04010KT 
     TEMPO 0422/0505 VRB05KT 
     BECMG 0504/0507 17010KT
       
LEBZ 041600Z 26007KT CAVOK 34/13 Q1015
TAF LEBZ 041400Z 0415/0515 29008KT CAVOK TX36/0515Z TN16/0506Z
       
LEMO 041630Z 25012KT 220V290 CAVOK 35/12 Q1013 NOSIG
TAF LEMO 041400Z 0415/0515 24010KT CAVOK TX39/0515Z TN21/0505Z 
     BECMG 0423/0501 VRB02KT 
     BECMG 0511/0513 24010KT
       
LESA 041600Z 30008KT 250V350 CAVOK 28/07 Q1018
TAF LESA 041400Z 0415/0515 29010KT 9999 FEW035 TX29/0415Z TN11/0505Z 
     PROB40 
     TEMPO 0415/0419 30013KT 
     TEMPO 0422/0510 VRB05KT 
     PROB40 
     TEMPO 0514/0515 28013G25KT
       
GCLP 041600Z 02024KT 9999 FEW030 26/17 Q1019 NOSIG
TAF GCLP 041400Z 0415/0515 03024KT 9999 FEW030 TX27/0514Z TN21/0506Z 
     PROB30 
     TEMPO 0415/0418 02022G32KT
       
LIED 041555Z 33014KT 9999 FEW030 32/24 Q1010 RMK FEW VIS MIN 9999 WIND THR35 34014KT WIND THR17 33013KT BLU
TAF LIED 041400Z 0415/0424 24010KT 9999 FEW030 
     BECMG 0418/0420 32010KT
       
LIPR 041620Z 11011KT CAVOK 27/21 Q1009
TAF LIPR 041100Z 0412/0512 10014KT 9999 SCT040 
     TEMPO 0412/0418 10016G26KT 
     BECMG 0420/0422 27012KT